createdAt,value
2022-10-23T00:01:47.405Z,6.57
2022-10-23T00:03:53.439Z,7.07
2022-10-23T00:05:56.661Z,11.60
2022-10-23T00:08:01.243Z,7.83
2022-10-23T00:10:04.740Z,6.37
2022-10-23T00:12:09.416Z,9.20
2022-10-23T00:14:12.750Z,7.43
2022-10-23T00:16:16.157Z,10.80
2022-10-23T00:18:19.348Z,7.53
2022-10-23T00:20:23.569Z,6.40
2022-10-23T00:22:26.845Z,9.87
2022-10-23T00:24:30.037Z,6.63
2022-10-23T00:26:33.437Z,11.03
2022-10-23T00:28:38.981Z,7.90
2022-10-23T00:30:42.362Z,3.40
2022-10-23T00:32:45.655Z,5.43
2022-10-23T00:34:48.833Z,7.37
2022-10-23T00:36:52.076Z,7.57
2022-10-23T00:38:55.676Z,5.70
2022-10-23T00:40:58.997Z,12.90
2022-10-23T00:43:02.132Z,5.33
2022-10-23T00:45:20.657Z,7.87
2022-10-23T00:47:23.946Z,4.87
2022-10-23T00:49:28.345Z,11.93
2022-10-23T00:51:37.273Z,6.20
2022-10-23T00:53:41.280Z,5.07
2022-10-23T00:55:46.823Z,11.23
2022-10-23T00:57:51.984Z,7.10
2022-10-23T00:59:55.245Z,6.13
2022-10-23T01:02:00.825Z,8.83
2022-10-23T01:04:06.028Z,11.47
2022-10-23T01:06:14.946Z,92.20
2022-10-23T01:08:27.349Z,13.70
2022-10-23T01:10:36.161Z,14.80
2022-10-23T01:12:46.883Z,3.17
2022-10-23T01:15:02.201Z,5.60
2022-10-23T01:17:12.817Z,8.90
2022-10-23T01:19:23.774Z,3.93
2022-10-23T01:21:36.234Z,8.80
2022-10-23T01:24:13.527Z,16.07
2022-10-23T01:26:36.160Z,29.23
2022-10-23T01:28:45.447Z,4.20
2022-10-23T01:30:49.629Z,12.50
2022-10-23T01:32:57.499Z,5.70
2022-10-23T01:35:06.964Z,6.93
2022-10-23T01:37:14.647Z,3.07
2022-10-23T01:39:21.995Z,3.33
2022-10-23T01:41:30.624Z,5.73
2022-10-23T01:43:43.248Z,6.07
2022-10-23T01:45:50.897Z,3.47
2022-10-23T01:47:56.365Z,2.73
2022-10-23T01:50:01.246Z,3.33
2022-10-23T01:52:10.281Z,5.63
2022-10-23T01:54:15.825Z,3.80
2022-10-23T01:56:21.515Z,4.50
2022-10-23T01:58:26.747Z,9.80
2022-10-23T02:00:31.882Z,4.47
2022-10-23T02:02:37.329Z,6.10
2022-10-23T02:04:43.614Z,4.50
2022-10-23T02:06:47.081Z,4.57
2022-10-23T02:08:50.704Z,4.93
2022-10-23T02:11:01.792Z,5.77
2022-10-23T02:13:10.263Z,5.57
2022-10-23T02:15:21.332Z,5.10
2022-10-23T02:17:32.856Z,3.63
2022-10-23T02:19:44.027Z,6.80
2022-10-23T02:21:54.037Z,5.30
2022-10-23T02:24:04.083Z,9.90
2022-10-23T02:26:10.794Z,8.20
2022-10-23T02:28:17.434Z,10.97
2022-10-23T02:30:21.361Z,8.13
2022-10-23T02:32:28.815Z,8.50
2022-10-23T02:34:32.003Z,9.10
2022-10-23T02:36:35.229Z,9.27
2022-10-23T02:38:41.654Z,10.53
2022-10-23T02:40:45.998Z,8.30
2022-10-23T02:42:52.858Z,10.03
2022-10-23T02:45:02.834Z,9.98
2022-10-23T02:47:24.299Z,9.90
2022-10-23T02:49:35.274Z,7.60
2022-10-23T02:51:51.736Z,6.80
2022-10-23T02:54:04.159Z,10.07
2022-10-23T02:56:14.448Z,9.68
2022-10-23T02:58:25.236Z,8.37
2022-10-23T03:00:32.271Z,7.07
2022-10-23T03:02:40.970Z,11.47
2022-10-23T03:04:46.446Z,16.80
2022-10-23T03:06:51.139Z,7.47
2022-10-23T03:08:56.560Z,8.03
2022-10-23T03:10:59.707Z,7.30
2022-10-23T03:13:03.159Z,11.33
2022-10-23T03:15:07.108Z,9.20
2022-10-23T03:17:11.683Z,9.87
2022-10-23T03:19:15.014Z,7.83
2022-10-23T03:21:19.565Z,11.50
2022-10-23T03:23:22.624Z,13.10
2022-10-23T03:25:25.984Z,8.40
2022-10-23T03:29:37.103Z,10.50
2022-10-23T03:31:40.455Z,9.70
2022-10-23T03:33:43.636Z,7.83
2022-10-23T03:37:58.409Z,7.17
2022-10-23T03:40:01.658Z,6.90
2022-10-23T03:42:05.089Z,7.87
2022-10-23T03:44:08.441Z,6.47
2022-10-23T03:46:13.143Z,7.87
2022-10-23T03:48:16.419Z,6.27
2022-10-23T03:50:20.196Z,9.60
2022-10-23T03:54:29.994Z,10.53
2022-10-23T03:56:33.240Z,6.40
2022-10-23T03:58:36.461Z,6.77
2022-10-23T04:00:39.859Z,6.17
2022-10-23T04:02:43.312Z,8.40
2022-10-23T04:04:46.754Z,5.57
2022-10-23T04:06:50.099Z,5.40
2022-10-23T04:08:53.798Z,5.67
2022-10-23T04:10:58.373Z,7.13
2022-10-23T04:13:01.542Z,7.17
2022-10-23T04:15:05.427Z,6.88
2022-10-23T04:17:08.698Z,7.77
2022-10-23T04:19:11.853Z,7.70
2022-10-23T04:21:15.076Z,6.85
2022-10-23T04:23:19.084Z,7.18
2022-10-23T04:25:22.363Z,10.63
2022-10-23T04:27:26.904Z,6.10
2022-10-23T04:29:32.463Z,7.70
2022-10-23T04:31:35.725Z,55.87
2022-10-23T04:33:39.144Z,47.30
2022-10-23T04:35:42.385Z,4.80
2022-10-23T04:37:46.136Z,5.47
2022-10-23T04:39:49.241Z,5.83
2022-10-23T04:41:52.434Z,9.00
2022-10-23T04:43:57.129Z,5.20
2022-10-23T04:46:00.388Z,6.80
2022-10-23T04:48:03.497Z,9.37
2022-10-23T04:50:08.073Z,9.03
2022-10-23T04:52:11.423Z,8.10
2022-10-23T04:54:14.708Z,9.70
2022-10-23T04:56:18.498Z,10.33
2022-10-23T04:58:22.255Z,8.03
2022-10-23T05:00:27.152Z,8.07
2022-10-23T05:02:30.554Z,14.50
2022-10-23T05:04:33.780Z,10.10
2022-10-23T05:06:37.028Z,8.50
2022-10-23T05:08:40.547Z,9.23
2022-10-23T05:10:43.701Z,8.63
2022-10-23T05:12:46.875Z,8.50
2022-10-23T05:14:50.132Z,8.47
2022-10-23T05:17:00.540Z,9.00
2022-10-23T05:19:04.501Z,8.33
2022-10-23T05:21:11.602Z,8.00
2022-10-23T05:23:19.338Z,7.13
2022-10-23T05:25:22.634Z,8.43
2022-10-23T05:27:26.209Z,7.67
2022-10-23T05:29:29.372Z,13.30
2022-10-23T05:31:35.090Z,8.00
2022-10-23T05:33:41.056Z,8.40
2022-10-23T05:35:45.760Z,6.47
2022-10-23T05:37:51.539Z,10.50
2022-10-23T05:39:54.699Z,7.80
2022-10-23T05:41:57.931Z,5.97
2022-10-23T05:44:01.095Z,9.90
2022-10-23T05:46:07.021Z,5.83
2022-10-23T05:48:22.446Z,4.70
2022-10-23T05:50:37.394Z,4.90
2022-10-23T05:52:40.930Z,6.57
2022-10-23T05:54:44.362Z,9.20
2022-10-23T05:56:47.547Z,5.90
2022-10-23T05:58:50.877Z,7.67
2022-10-23T06:00:54.017Z,6.30
2022-10-23T06:02:57.378Z,5.20
2022-10-23T06:05:00.592Z,5.60
2022-10-23T06:07:05.605Z,9.33
2022-10-23T06:09:09.133Z,8.00
2022-10-23T06:11:14.335Z,5.33
2022-10-23T06:13:17.547Z,9.57
2022-10-23T06:15:20.783Z,7.40
2022-10-23T06:17:24.089Z,6.90
2022-10-23T06:19:27.395Z,7.83
2022-10-23T06:21:30.608Z,6.67
2022-10-23T06:23:36.601Z,9.53
2022-10-23T06:25:39.803Z,11.50
2022-10-23T06:27:42.892Z,7.00
2022-10-23T06:29:46.086Z,6.90
2022-10-23T06:31:49.246Z,6.50
2022-10-23T06:33:52.391Z,7.90
2022-10-23T06:35:57.568Z,7.20
2022-10-23T06:38:00.812Z,6.60
2022-10-23T06:40:06.390Z,6.40
2022-10-23T06:42:09.543Z,5.57
2022-10-23T06:44:12.755Z,10.30
2022-10-23T06:46:16.565Z,6.30
2022-10-23T06:48:19.750Z,5.10
2022-10-23T06:50:23.426Z,7.17
2022-10-23T06:52:45.909Z,5.47
2022-10-23T06:54:49.898Z,4.90
2022-10-23T06:56:54.521Z,4.83
2022-10-23T06:58:57.741Z,5.90
2022-10-23T07:01:02.070Z,4.40
2022-10-23T07:03:05.584Z,5.20
2022-10-23T07:05:12.761Z,4.53
2022-10-23T07:07:17.086Z,4.93
2022-10-23T07:09:20.530Z,5.47
2022-10-23T07:11:25.225Z,4.10
2022-10-23T07:13:29.742Z,8.83
2022-10-23T07:15:33.222Z,3.83
2022-10-23T07:17:36.934Z,7.87
2022-10-23T07:19:40.506Z,3.53
2022-10-23T07:21:44.101Z,5.00
2022-10-23T07:23:47.600Z,2.47
2022-10-23T07:25:51.130Z,7.30
2022-10-23T07:27:55.850Z,3.60
2022-10-23T07:30:00.678Z,2.80
2022-10-23T07:32:04.654Z,5.20
2022-10-23T07:34:08.141Z,6.30
2022-10-23T07:36:12.202Z,5.17
2022-10-23T07:38:15.847Z,3.30
2022-10-23T07:40:19.446Z,5.20
2022-10-23T07:42:22.970Z,3.07
2022-10-23T07:44:27.777Z,2.73
2022-10-23T07:46:32.974Z,4.43
2022-10-23T07:48:36.565Z,3.20
2022-10-23T07:50:40.061Z,7.47
2022-10-23T07:52:44.609Z,5.33
2022-10-23T07:54:48.433Z,4.27
2022-10-23T07:56:51.889Z,4.50
2022-10-23T07:58:55.472Z,2.70
2022-10-23T08:00:59.869Z,2.43
2022-10-23T08:03:04.959Z,7.03
2022-10-23T08:05:09.007Z,2.67
2022-10-23T08:07:12.425Z,4.20
2022-10-23T08:09:15.841Z,3.43
2022-10-23T08:11:25.022Z,4.03
2022-10-23T08:13:28.716Z,2.30
2022-10-23T08:15:32.214Z,2.20
2022-10-23T08:17:35.782Z,4.43
2022-10-23T08:19:40.777Z,4.70
2022-10-23T08:21:44.197Z,3.20
2022-10-23T08:23:47.629Z,1.83
2022-10-23T08:25:51.115Z,3.97
2022-10-23T08:27:54.671Z,2.63
2022-10-23T08:29:58.065Z,3.80
2022-10-23T08:32:01.603Z,2.73
2022-10-23T08:34:05.197Z,2.40
2022-10-23T08:36:18.114Z,2.10
2022-10-23T08:38:21.827Z,9.63
2022-10-23T08:40:26.408Z,1.70
2022-10-23T08:42:29.956Z,4.40
2022-10-23T08:44:35.033Z,2.10
2022-10-23T08:46:41.951Z,1.53
2022-10-23T08:48:48.400Z,3.23
2022-10-23T08:50:56.813Z,4.83
2022-10-23T08:53:05.125Z,3.97
2022-10-23T08:55:14.498Z,1.40
2022-10-23T08:57:19.318Z,2.27
2022-10-23T08:59:28.455Z,1.47
2022-10-23T09:01:35.336Z,1.70
2022-10-23T09:03:38.881Z,3.20
2022-10-23T09:05:48.448Z,1.80
2022-10-23T09:08:01.832Z,2.10
2022-10-23T09:10:27.856Z,2.13
2022-10-23T09:12:32.662Z,2.20
2022-10-23T09:14:57.573Z,5.53
2022-10-23T09:17:06.613Z,1.40
2022-10-23T09:19:13.506Z,2.90
2022-10-23T09:21:17.208Z,2.10
2022-10-23T09:23:22.836Z,1.57
2022-10-23T09:25:29.200Z,2.00
2022-10-23T09:27:32.805Z,4.00
2022-10-23T09:29:36.888Z,2.77
2022-10-23T09:31:50.012Z,3.20
2022-10-23T09:33:57.632Z,27.67
2022-10-23T09:36:02.130Z,1.53
2022-10-23T09:38:05.544Z,3.30
2022-10-23T09:40:19.660Z,1.33
2022-10-23T09:42:25.403Z,2.00
2022-10-23T09:44:30.056Z,3.60
2022-10-23T09:46:40.504Z,4.10
2022-10-23T09:48:44.040Z,2.60
2022-10-23T09:50:51.869Z,2.37
2022-10-23T09:52:57.003Z,3.33
2022-10-23T09:55:02.231Z,3.90
2022-10-23T09:57:08.006Z,3.83
2022-10-23T09:59:23.201Z,2.03
2022-10-23T10:01:28.119Z,2.90
2022-10-23T10:03:31.830Z,1.93
2022-10-23T10:05:36.520Z,2.73
2022-10-23T10:07:40.273Z,1.20
2022-10-23T10:09:44.129Z,2.47
2022-10-23T10:11:49.761Z,2.40
2022-10-23T10:14:01.650Z,2.90
2022-10-23T10:16:08.957Z,4.30
2022-10-23T10:18:16.977Z,3.33
2022-10-23T10:20:36.016Z,3.60
2022-10-23T10:22:43.011Z,3.90
2022-10-23T10:24:51.015Z,3.07
2022-10-23T10:26:56.640Z,2.30
2022-10-23T10:29:04.373Z,2.10
2022-10-23T10:31:12.414Z,3.23
2022-10-23T10:33:18.041Z,1.50
2022-10-23T10:35:25.787Z,2.17
2022-10-23T10:37:33.978Z,1.10
2022-10-23T10:39:41.693Z,1.43
2022-10-23T10:41:50.907Z,2.07
2022-10-23T10:44:00.014Z,1.50
2022-10-23T10:46:08.451Z,3.57
2022-10-23T10:48:26.959Z,2.53
2022-10-23T10:50:33.774Z,3.93
2022-10-23T10:52:45.395Z,1.83
2022-10-23T10:54:58.665Z,1.57
2022-10-23T10:57:04.192Z,1.87
2022-10-23T10:59:12.576Z,4.40
2022-10-23T11:01:19.402Z,2.70
2022-10-23T11:03:27.043Z,0.93
2022-10-23T11:05:34.923Z,2.43
2022-10-23T11:07:41.707Z,1.30
2022-10-23T11:09:45.836Z,5.67
2022-10-23T11:11:49.499Z,2.40
2022-10-23T11:13:54.013Z,1.47
2022-10-23T11:15:59.768Z,1.40
2022-10-23T11:18:05.840Z,1.23
2022-10-23T11:20:17.626Z,7.00
2022-10-23T11:22:26.423Z,2.07
2022-10-23T11:24:48.199Z,5.60
2022-10-23T11:27:00.376Z,3.23
2022-10-23T11:29:27.888Z,3.60
2022-10-23T11:31:33.917Z,1.23
2022-10-23T11:33:47.197Z,3.70
2022-10-23T11:35:55.796Z,2.60
2022-10-23T11:38:02.009Z,2.50
2022-10-23T11:40:17.348Z,2.37
2022-10-23T11:42:31.456Z,2.63
2022-10-23T11:44:43.002Z,1.83
2022-10-23T11:46:47.450Z,1.73
2022-10-23T11:48:51.246Z,8.73
2022-10-23T11:50:58.157Z,2.20
2022-10-23T11:53:14.551Z,3.10
2022-10-23T11:55:19.633Z,7.97
2022-10-23T11:57:23.565Z,7.70
2022-10-23T11:59:30.404Z,3.13
2022-10-23T12:01:37.906Z,2.27
2022-10-23T12:03:43.649Z,5.03
2022-10-23T12:05:47.301Z,2.07
2022-10-23T12:07:55.781Z,1.73
2022-10-23T12:10:02.007Z,2.90
2022-10-23T12:12:15.022Z,1.90
2022-10-23T12:14:28.225Z,7.67
2022-10-23T12:16:37.783Z,1.90
2022-10-23T12:18:48.940Z,1.50
2022-10-23T12:20:54.258Z,1.73
2022-10-23T12:23:08.070Z,1.40
2022-10-23T12:25:15.653Z,7.13
2022-10-23T12:27:24.646Z,2.80
2022-10-23T12:29:40.900Z,1.23
2022-10-23T12:31:49.416Z,6.03
2022-10-23T12:33:57.353Z,1.40
2022-10-23T12:36:11.414Z,1.50
2022-10-23T12:38:15.968Z,2.00
2022-10-23T12:40:20.841Z,2.83
2022-10-23T12:42:25.605Z,1.67
2022-10-23T12:44:29.216Z,2.27
2022-10-23T12:46:34.560Z,1.67
2022-10-23T12:48:38.020Z,3.80
2022-10-23T12:50:41.489Z,1.80
2022-10-23T12:52:52.638Z,2.97
2022-10-23T12:54:56.215Z,2.27
2022-10-23T12:57:01.394Z,1.33
2022-10-23T12:59:06.937Z,5.17
2022-10-23T13:01:23.625Z,1.47
2022-10-23T13:03:27.926Z,1.40
2022-10-23T13:05:32.226Z,4.83
2022-10-23T13:07:37.208Z,2.40
2022-10-23T13:09:42.744Z,2.80
2022-10-23T13:11:46.324Z,1.70
2022-10-23T13:13:51.370Z,1.90
2022-10-23T13:15:54.919Z,8.00
2022-10-23T13:18:03.133Z,3.90
2022-10-23T13:20:18.706Z,2.60
2022-10-23T13:22:22.859Z,5.13
2022-10-23T13:24:27.843Z,1.60
2022-10-23T13:26:33.641Z,2.93
2022-10-23T13:28:42.862Z,3.67
2022-10-23T13:30:47.973Z,4.73
2022-10-23T13:32:51.511Z,5.17
2022-10-23T13:35:03.967Z,3.03
2022-10-23T13:37:26.393Z,3.07
2022-10-23T13:39:31.728Z,3.90
2022-10-23T13:41:37.852Z,2.73
2022-10-23T13:43:41.735Z,3.43
2022-10-23T13:45:45.386Z,3.73
2022-10-23T13:47:50.641Z,2.53
2022-10-23T13:49:54.250Z,1.73
2022-10-23T13:51:58.221Z,3.93
2022-10-23T13:54:01.926Z,3.43
2022-10-23T13:56:05.626Z,1.30
2022-10-23T13:58:09.219Z,2.37
2022-10-23T14:00:13.173Z,2.37
2022-10-23T14:02:20.258Z,2.90
2022-10-23T14:04:25.335Z,2.50
2022-10-23T14:06:28.793Z,1.17
2022-10-23T14:08:32.280Z,2.00
2022-10-23T14:10:35.823Z,6.53
2022-10-23T14:12:42.993Z,2.93
2022-10-23T14:14:46.789Z,2.53
2022-10-23T14:16:50.217Z,3.00
2022-10-23T14:18:53.648Z,4.47
2022-10-23T14:21:01.287Z,1.50
2022-10-23T14:23:04.802Z,2.73
2022-10-23T14:25:08.590Z,2.10
2022-10-23T14:27:12.571Z,6.10
2022-10-23T14:29:23.056Z,3.93
2022-10-23T14:31:27.545Z,2.07
2022-10-23T14:33:30.989Z,1.63
2022-10-23T14:35:34.454Z,4.17
2022-10-23T14:37:39.583Z,1.70
2022-10-23T14:39:47.500Z,2.73
2022-10-23T14:41:53.204Z,4.93
2022-10-23T14:43:56.732Z,6.63
2022-10-23T14:46:09.445Z,4.20
2022-10-23T14:48:13.065Z,2.90
2022-10-23T14:50:17.243Z,1.87
2022-10-23T14:52:20.943Z,1.63
2022-10-23T14:54:26.771Z,3.10
2022-10-23T14:56:30.950Z,1.73
2022-10-23T14:58:34.391Z,1.83
2022-10-23T15:00:39.323Z,2.33
2022-10-23T15:02:43.085Z,6.70
2022-10-23T15:04:46.801Z,1.80
2022-10-23T15:06:50.344Z,1.87
2022-10-23T15:08:55.099Z,2.97
2022-10-23T15:11:02.692Z,2.10
2022-10-23T15:13:06.187Z,2.33
2022-10-23T15:15:10.144Z,3.80
2022-10-23T15:17:15.688Z,3.03
2022-10-23T15:19:19.437Z,3.37
2022-10-23T15:21:23.034Z,4.07
2022-10-23T15:23:26.596Z,5.63
2022-10-23T15:25:30.073Z,7.70
2022-10-23T15:27:34.921Z,2.50
2022-10-23T15:29:38.541Z,5.83
2022-10-23T15:31:42.632Z,2.50
2022-10-23T15:33:46.117Z,5.60
2022-10-23T15:35:49.662Z,4.37
2022-10-23T15:37:53.189Z,5.80
2022-10-23T15:40:01.277Z,12.70
2022-10-23T15:42:06.897Z,10.60
2022-10-23T15:44:14.174Z,21.10
2022-10-23T15:46:17.844Z,12.40
2022-10-23T15:48:21.272Z,14.03
2022-10-23T15:50:25.034Z,17.10
2022-10-23T15:52:28.773Z,9.57
2022-10-23T15:54:33.086Z,11.90
2022-10-23T15:56:36.994Z,9.83
2022-10-23T15:58:40.694Z,6.20
2022-10-23T16:00:45.870Z,8.87
2022-10-23T16:02:49.372Z,9.63
2022-10-23T16:04:53.166Z,5.20
2022-10-23T16:06:56.757Z,5.70
2022-10-23T16:09:00.252Z,5.30
2022-10-23T16:11:04.230Z,6.97
2022-10-23T16:13:07.717Z,14.73
2022-10-23T16:15:11.617Z,9.07
2022-10-23T16:19:25.060Z,7.80
2022-10-23T16:21:29.830Z,7.57
2022-10-23T16:23:33.995Z,8.40
2022-10-23T16:25:37.588Z,7.50
2022-10-23T16:27:41.446Z,13.10
2022-10-23T16:29:46.240Z,6.30
2022-10-23T16:31:49.648Z,6.70
2022-10-23T16:33:55.199Z,8.23
2022-10-23T16:36:03.618Z,10.73
2022-10-23T16:38:07.381Z,14.13
2022-10-23T16:40:11.627Z,5.67
2022-10-23T16:42:15.331Z,7.37
2022-10-23T16:44:18.906Z,8.17
2022-10-23T16:46:23.436Z,14.10
2022-10-23T16:48:27.055Z,6.60
2022-10-23T16:50:31.993Z,5.50
2022-10-23T16:52:35.656Z,7.63
2022-10-23T16:54:39.152Z,7.83
2022-10-23T16:56:43.466Z,5.73
2022-10-23T16:58:46.994Z,7.10
2022-10-23T17:00:57.569Z,4.67
2022-10-23T17:03:01.281Z,5.57
2022-10-23T17:05:04.712Z,9.13
2022-10-23T17:07:10.115Z,4.87
2022-10-23T17:09:13.709Z,7.87
2022-10-23T17:11:17.920Z,8.73
2022-10-23T17:13:21.432Z,9.43
2022-10-23T17:15:24.963Z,8.60
2022-10-23T17:17:28.543Z,14.50
2022-10-23T17:19:44.664Z,9.23
2022-10-23T17:21:49.362Z,15.73
2022-10-23T17:23:54.481Z,10.53
2022-10-23T17:25:58.463Z,18.27
2022-10-23T17:28:02.005Z,14.33
2022-10-23T17:30:09.272Z,15.47
2022-10-23T17:32:15.303Z,12.70
2022-10-23T17:34:20.137Z,12.63
2022-10-23T17:36:23.917Z,15.77
2022-10-23T17:38:27.463Z,18.70
2022-10-23T17:40:33.788Z,27.40
2022-10-23T17:42:37.415Z,24.97
2022-10-23T17:44:41.146Z,33.37
2022-10-23T17:46:45.803Z,26.40
2022-10-23T17:48:49.389Z,13.00
2022-10-23T17:50:52.973Z,17.40
2022-10-23T17:52:56.590Z,17.03
2022-10-23T17:55:00.069Z,14.67
2022-10-23T17:57:05.001Z,11.07
2022-10-23T17:59:09.679Z,11.40
2022-10-23T18:01:14.333Z,8.43
2022-10-23T18:03:20.008Z,9.20
2022-10-23T18:05:23.818Z,13.47
2022-10-23T18:07:27.545Z,10.20
2022-10-23T18:09:31.085Z,9.10
2022-10-23T18:11:35.644Z,8.43
2022-10-23T18:13:40.564Z,11.93
2022-10-23T18:15:44.370Z,11.13
2022-10-23T18:17:47.989Z,18.83
2022-10-23T18:19:52.200Z,35.70
2022-10-23T18:21:55.753Z,36.73
2022-10-23T18:24:00.988Z,43.77
2022-10-23T18:26:05.344Z,46.40
2022-10-23T18:28:09.031Z,51.73
2022-10-23T18:30:14.713Z,48.30
2022-10-23T18:32:18.233Z,46.83
2022-10-23T18:34:23.052Z,20.00
2022-10-23T18:36:27.528Z,13.80
2022-10-23T18:38:31.235Z,21.80
2022-10-23T18:40:35.913Z,22.63
2022-10-23T18:42:39.325Z,24.80
2022-10-23T18:44:46.956Z,22.90
2022-10-23T18:46:52.376Z,17.53
2022-10-23T18:48:55.818Z,21.73
2022-10-23T18:50:59.429Z,17.60
2022-10-23T18:53:03.007Z,21.73
2022-10-23T18:55:07.088Z,16.73
2022-10-23T18:57:10.716Z,18.80
2022-10-23T18:59:15.606Z,16.47
2022-10-23T19:01:19.225Z,16.60
2022-10-23T19:03:24.273Z,13.70
2022-10-23T19:05:27.780Z,11.17
2022-10-23T19:07:31.315Z,12.87
2022-10-23T19:09:34.861Z,10.93
2022-10-23T19:11:38.727Z,12.83
2022-10-23T19:13:43.108Z,16.10
2022-10-23T19:15:46.626Z,18.77
2022-10-23T19:17:53.290Z,20.60
2022-10-23T19:20:00.271Z,20.57
2022-10-23T19:22:04.720Z,34.73
2022-10-23T19:24:09.593Z,39.43
2022-10-23T19:26:14.518Z,59.73
2022-10-23T19:28:18.107Z,53.57
2022-10-23T19:30:22.849Z,46.10
2022-10-23T19:32:26.669Z,37.87
2022-10-23T19:34:30.162Z,22.77
2022-10-23T19:36:35.327Z,27.40
2022-10-23T19:38:40.388Z,16.93
2022-10-23T19:40:44.035Z,22.27
2022-10-23T19:42:47.569Z,19.60
2022-10-23T19:44:51.401Z,18.97
2022-10-23T19:46:54.886Z,17.70
2022-10-23T19:48:58.898Z,13.43
2022-10-23T19:51:02.612Z,14.90
2022-10-23T19:53:07.519Z,13.43
2022-10-23T19:55:11.157Z,13.00
2022-10-23T19:57:17.039Z,9.30
2022-10-23T19:59:22.756Z,15.53
2022-10-23T20:01:27.318Z,8.10
2022-10-23T20:03:30.863Z,9.17
2022-10-23T20:05:34.368Z,17.63
2022-10-23T20:07:38.287Z,10.40
2022-10-23T20:09:43.321Z,15.20
2022-10-23T20:11:49.420Z,9.37
2022-10-23T20:13:53.399Z,7.60
2022-10-23T20:15:56.923Z,8.80
2022-10-23T20:18:00.414Z,7.40
2022-10-23T20:20:03.862Z,12.57
2022-10-23T20:22:06.949Z,16.97
2022-10-23T20:24:11.285Z,11.57
2022-10-23T20:26:18.750Z,16.60
2022-10-23T20:28:24.617Z,15.80
2022-10-23T20:30:28.300Z,13.20
2022-10-23T20:32:31.770Z,12.77
2022-10-23T20:34:35.234Z,8.80
2022-10-23T20:36:45.583Z,12.43
2022-10-23T20:38:50.190Z,10.40
2022-10-23T20:40:53.808Z,11.27
2022-10-23T20:42:58.588Z,9.57
2022-10-23T20:45:03.489Z,13.53
2022-10-23T20:47:06.984Z,11.07
2022-10-23T20:49:10.481Z,13.33
2022-10-23T20:51:18.553Z,12.27
2022-10-23T20:53:21.845Z,13.00
2022-10-23T20:55:25.702Z,11.97
2022-10-23T20:57:29.426Z,7.70
2022-10-23T20:59:37.477Z,10.37
2022-10-23T21:01:41.854Z,11.30
2022-10-23T21:03:45.916Z,8.00
2022-10-23T21:05:49.096Z,8.93
2022-10-23T21:07:52.289Z,17.33
2022-10-23T21:09:55.882Z,12.07
2022-10-23T21:11:59.549Z,12.80
2022-10-23T21:14:03.704Z,12.37
2022-10-23T21:16:15.172Z,12.53
2022-10-23T21:18:33.984Z,13.60
2022-10-23T21:20:43.385Z,12.63
2022-10-23T21:22:46.974Z,11.63
2022-10-23T21:24:50.551Z,17.47
2022-10-23T21:26:54.147Z,14.10
2022-10-23T21:29:16.911Z,19.03
2022-10-23T21:31:23.054Z,16.53
2022-10-23T21:33:28.972Z,19.27
2022-10-23T21:35:32.708Z,21.70
2022-10-23T21:37:35.894Z,20.27
2022-10-23T21:39:39.286Z,24.53
2022-10-23T21:41:42.575Z,16.13
2022-10-23T21:43:47.102Z,11.93
2022-10-23T21:45:50.281Z,13.63
2022-10-23T21:47:55.018Z,15.37
2022-10-23T21:49:58.292Z,10.87
2022-10-23T21:52:01.795Z,13.30
2022-10-23T21:54:07.090Z,13.40
2022-10-23T21:56:23.726Z,8.30
2022-10-23T21:58:26.982Z,11.20
2022-10-23T22:00:30.205Z,10.70
2022-10-23T22:02:33.507Z,10.07
2022-10-23T22:04:38.938Z,10.23
2022-10-23T22:06:43.057Z,6.77
2022-10-23T22:08:46.431Z,13.03
2022-10-23T22:10:49.617Z,8.80
2022-10-23T22:12:52.732Z,8.40
2022-10-23T22:14:58.300Z,7.70
2022-10-23T22:17:01.456Z,6.20
2022-10-23T22:19:04.593Z,7.17
2022-10-23T22:21:11.126Z,6.47
2022-10-23T22:23:14.204Z,9.43
2022-10-23T22:25:17.989Z,7.70
2022-10-23T22:27:21.181Z,8.93
2022-10-23T22:29:26.349Z,6.03
2022-10-23T22:31:31.633Z,9.60
2022-10-23T22:33:35.038Z,6.77
2022-10-23T22:35:38.207Z,6.17
2022-10-23T22:37:42.934Z,10.10
2022-10-23T22:39:46.247Z,7.73
2022-10-23T22:41:49.333Z,7.50
2022-10-23T22:43:56.129Z,3.60
2022-10-23T22:46:04.818Z,13.27
2022-10-23T22:48:08.797Z,5.60
2022-10-23T22:50:11.966Z,6.90
2022-10-23T22:52:15.136Z,5.83
2022-10-23T22:54:20.285Z,10.43
2022-10-23T22:56:25.443Z,8.63
2022-10-23T22:58:28.812Z,6.90
2022-10-23T23:00:32.020Z,4.20
2022-10-23T23:02:35.460Z,4.77
2022-10-23T23:04:39.403Z,6.50
2022-10-23T23:06:42.742Z,7.10
2022-10-23T23:08:46.411Z,10.30
2022-10-23T23:10:55.134Z,4.83
2022-10-23T23:12:58.395Z,5.47
2022-10-23T23:15:01.887Z,4.83
2022-10-23T23:17:05.405Z,8.43
2022-10-23T23:19:08.901Z,3.90
2022-10-23T23:21:12.292Z,4.13
2022-10-23T23:23:16.610Z,8.27
2022-10-23T23:25:20.113Z,6.23
2022-10-23T23:27:25.033Z,5.70
2022-10-23T23:29:29.843Z,4.87
2022-10-23T23:31:33.046Z,13.70
2022-10-23T23:33:36.754Z,9.73
2022-10-23T23:35:41.196Z,11.97
2022-10-23T23:37:44.655Z,6.23
2022-10-23T23:39:48.048Z,6.80
2022-10-23T23:41:51.336Z,9.40
2022-10-23T23:43:58.316Z,8.03
2022-10-23T23:46:01.501Z,7.80
2022-10-23T23:48:04.996Z,8.70
2022-10-23T23:50:10.036Z,8.50
2022-10-23T23:52:13.299Z,4.27
2022-10-23T23:54:16.553Z,5.53
2022-10-23T23:56:20.031Z,13.63
2022-10-23T23:58:23.488Z,6.60
